Terminal Aerodrome Forecast
Issued by NWS San Angelo, TX

Home | Current Version | Previous Version | Text Only | Print | Product List | Glossary On
Versions: 1 2 3 4 5 6 7 8 9 10 11 12 13
180
FTUS44 KSJT 272320
TAFABI
TAF
KABI 272320Z 2800/2824 11007KT P6SM SKC
     FM281000 12012G20KT P6SM BKN020
     FM281300 14013G21KT P6SM OVC012
     FM281800 16015G24KT P6SM OVC020
     FM282100 18017G27KT P6SM BKN040=

USA.gov is the U.S. government's official web portal to all federal, state and local government web resources and services.